createdAt,value
2018-03-03T00:01:59.356Z,59.33
2018-03-03T00:04:27.630Z,59.03
2018-03-03T00:06:56.016Z,57.83
2018-03-03T00:09:24.281Z,58.03
2018-03-03T00:11:52.531Z,56.30
2018-03-03T00:14:21.544Z,58.87
2018-03-03T00:16:49.804Z,58.27
2018-03-03T00:19:17.315Z,58.60
2018-03-03T00:21:44.799Z,58.47
2018-03-03T00:24:12.300Z,57.67
2018-03-03T00:26:40.550Z,58.30
2018-03-03T00:29:08.801Z,57.90
2018-03-03T00:31:36.288Z,56.57
2018-03-03T00:34:03.809Z,53.77
2018-03-03T00:36:31.295Z,54.33
2018-03-03T00:38:58.800Z,52.43
2018-03-03T00:41:26.282Z,54.70
2018-03-03T00:43:54.559Z,55.13
2018-03-03T00:46:22.065Z,58.00
2018-03-03T00:48:49.579Z,58.53
2018-03-03T00:51:17.065Z,59.03
2018-03-03T00:53:44.567Z,55.50
2018-03-03T00:56:12.074Z,57.57
2018-03-03T00:58:39.890Z,56.43
2018-03-03T01:01:07.375Z,57.60
2018-03-03T01:03:34.872Z,56.03
2018-03-03T01:06:02.365Z,53.27
2018-03-03T01:08:29.858Z,54.60
2018-03-03T01:10:57.346Z,52.92
2018-03-03T01:13:25.624Z,54.60
2018-03-03T01:15:53.892Z,54.15
2018-03-03T01:18:21.385Z,55.40
2018-03-03T01:20:48.874Z,55.97
2018-03-03T01:23:16.358Z,56.63
2018-03-03T01:25:43.870Z,52.00
2018-03-03T01:28:11.374Z,55.23
2018-03-03T01:30:38.860Z,56.13
2018-03-03T01:33:07.124Z,54.47
2018-03-03T01:35:34.613Z,52.67
2018-03-03T01:38:02.102Z,54.43
2018-03-03T01:40:29.604Z,51.47
2018-03-03T01:42:57.861Z,54.17
2018-03-03T01:45:25.373Z,51.53
2018-03-03T01:47:53.629Z,53.00
2018-03-03T01:50:21.998Z,50.60
2018-03-03T01:52:50.249Z,49.00
2018-03-03T01:55:17.733Z,50.80
2018-03-03T01:57:45.986Z,54.40
2018-03-03T02:00:13.474Z,50.50
2018-03-03T02:02:40.962Z,53.10
2018-03-03T02:05:08.483Z,53.80
2018-03-03T02:07:37.770Z,55.87
2018-03-03T02:10:05.290Z,52.90
2018-03-03T02:12:32.790Z,52.40
2018-03-03T02:15:00.289Z,53.23
2018-03-03T02:17:27.772Z,60.70
2018-03-03T02:19:55.270Z,53.00
2018-03-03T02:22:23.526Z,57.33
2018-03-03T02:24:51.018Z,55.03
2018-03-03T02:27:20.205Z,60.57
2018-03-03T02:29:48.480Z,54.57
2018-03-03T02:32:16.734Z,71.43
2018-03-03T02:34:44.237Z,65.47
2018-03-03T02:37:12.592Z,61.73
2018-03-03T02:39:40.849Z,60.03
2018-03-03T02:42:08.353Z,55.10
2018-03-03T02:44:35.860Z,53.43
2018-03-03T02:47:03.353Z,57.60
2018-03-03T02:49:31.610Z,53.40
2018-03-03T02:51:59.869Z,53.63
2018-03-03T02:54:27.360Z,46.77
2018-03-03T02:56:54.864Z,48.42
2018-03-03T02:59:22.353Z,49.80
2018-03-03T03:01:50.633Z,51.20
2018-03-03T03:04:18.115Z,51.23
2018-03-03T03:06:46.368Z,51.03
2018-03-03T03:09:14.629Z,49.00
2018-03-03T03:11:43.626Z,48.60
2018-03-03T03:14:11.128Z,45.83
2018-03-03T03:16:38.659Z,46.60
2018-03-03T03:19:06.111Z,44.63
2018-03-03T03:21:33.599Z,46.67
2018-03-03T03:24:01.097Z,44.40
2018-03-03T03:26:28.599Z,45.47
2018-03-03T03:28:56.861Z,47.37
2018-03-03T03:31:24.363Z,46.27
2018-03-03T03:33:51.853Z,47.50
2018-03-03T03:36:19.336Z,44.03
2018-03-03T03:38:46.832Z,44.53
2018-03-03T03:41:14.311Z,43.27
2018-03-03T03:43:41.796Z,43.90
2018-03-03T03:46:09.286Z,47.70
2018-03-03T03:48:37.536Z,43.83
2018-03-03T03:51:05.081Z,47.40
2018-03-03T03:53:32.554Z,41.70
2018-03-03T03:56:00.794Z,41.72
2018-03-03T03:58:28.289Z,44.43
2018-03-03T04:00:56.546Z,43.47
2018-03-03T04:03:24.037Z,40.60
2018-03-03T04:05:53.215Z,42.57
2018-03-03T04:08:20.709Z,43.97
2018-03-03T04:10:48.191Z,45.37
2018-03-03T04:13:15.686Z,41.43
2018-03-03T04:15:43.975Z,44.93
2018-03-03T04:18:11.480Z,45.10
2018-03-03T04:20:39.304Z,45.30
2018-03-03T04:23:07.581Z,42.95
2018-03-03T04:25:35.832Z,40.73
2018-03-03T04:28:03.327Z,42.33
2018-03-03T04:30:31.578Z,41.67
2018-03-03T04:32:59.095Z,40.70
2018-03-03T04:35:26.900Z,39.10
2018-03-03T04:37:54.404Z,40.00
2018-03-03T04:40:21.885Z,41.00
2018-03-03T04:42:49.378Z,37.40
2018-03-03T04:45:16.879Z,36.77
2018-03-03T04:47:44.362Z,38.23
2018-03-03T04:50:11.854Z,36.37
2018-03-03T04:52:39.335Z,34.07
2018-03-03T04:55:06.860Z,32.10
2018-03-03T04:57:34.349Z,30.50
2018-03-03T05:00:17.491Z,27.77
2018-03-03T05:02:45.915Z,37.10
2018-03-03T05:05:19.240Z,36.20
2018-03-03T05:07:53.317Z,34.50
2018-03-03T05:13:32.340Z,35.95
2018-03-03T05:16:05.442Z,36.50
2018-03-03T05:18:38.760Z,38.60
2018-03-03T05:34:51.454Z,35.72
2018-03-03T05:37:35.671Z,35.88
2018-03-03T05:40:08.812Z,37.10
2018-03-03T05:42:42.103Z,36.75
2018-03-03T05:45:15.253Z,37.27
2018-03-03T06:01:14.052Z,29.98
2018-03-03T06:03:47.147Z,31.20
2018-03-03T06:06:20.458Z,31.93
2018-03-03T06:09:02.823Z,30.60
2018-03-03T06:11:30.321Z,30.20
2018-03-03T06:13:58.577Z,28.98
2018-03-03T06:16:26.076Z,35.67
2018-03-03T06:18:54.332Z,34.03
2018-03-03T06:21:22.606Z,34.70
2018-03-03T06:23:50.104Z,31.70
2018-03-03T06:26:17.596Z,35.37
2018-03-03T06:28:45.087Z,34.00
2018-03-03T06:31:12.657Z,36.17
2018-03-03T06:33:40.930Z,33.80
2018-03-03T06:36:09.211Z,36.60
2018-03-03T06:38:37.449Z,36.57
2018-03-03T06:41:04.947Z,33.92
2018-03-03T06:43:33.200Z,38.20
2018-03-03T06:46:00.696Z,41.13
2018-03-03T06:48:28.189Z,49.00
2018-03-03T06:50:55.683Z,38.03
2018-03-03T06:53:23.187Z,37.83
2018-03-03T06:55:50.690Z,42.40
2018-03-03T06:58:18.166Z,45.60
2018-03-03T07:00:46.404Z,44.00
2018-03-03T07:03:13.910Z,39.80
2018-03-03T07:05:42.167Z,40.07
2018-03-03T07:08:09.687Z,38.87
2018-03-03T07:10:37.172Z,38.20
2018-03-03T07:13:04.668Z,37.85
2018-03-03T07:15:32.150Z,35.50
2018-03-03T07:17:59.658Z,35.90
2018-03-03T07:20:27.146Z,37.47
2018-03-03T07:22:54.727Z,32.30
2018-03-03T07:25:22.197Z,30.70
2018-03-03T07:27:49.686Z,29.33
2018-03-03T07:30:17.175Z,31.47
2018-03-03T07:32:44.673Z,30.50
2018-03-03T07:35:12.175Z,32.17
2018-03-03T07:37:39.683Z,32.17
2018-03-03T07:40:07.154Z,33.27
2018-03-03T07:42:34.653Z,30.20
2018-03-03T07:45:02.920Z,30.47
2018-03-03T07:47:30.448Z,30.37
2018-03-03T07:49:57.934Z,30.50
2018-03-03T07:52:25.501Z,29.57
2018-03-03T07:54:54.539Z,30.43
2018-03-03T07:57:22.135Z,29.52
2018-03-03T07:59:50.409Z,28.63
2018-03-03T08:02:17.904Z,29.57
2018-03-03T08:04:46.158Z,31.33
2018-03-03T08:07:13.652Z,31.80
2018-03-03T08:09:41.150Z,32.60
2018-03-03T08:12:08.666Z,32.57
2018-03-03T08:14:36.156Z,34.63
2018-03-03T08:17:03.643Z,34.30
2018-03-03T08:19:31.124Z,35.20
2018-03-03T08:21:58.614Z,32.53
2018-03-03T08:24:26.111Z,33.60
2018-03-03T08:26:53.581Z,34.33
2018-03-03T08:29:21.850Z,34.60
2018-03-03T08:31:49.326Z,33.20
2018-03-03T08:34:17.582Z,34.83
2018-03-03T08:36:45.153Z,33.40
2018-03-03T08:39:13.424Z,32.27
2018-03-03T08:41:41.672Z,30.20
2018-03-03T08:44:09.174Z,30.83
2018-03-03T08:46:37.423Z,30.80
2018-03-03T08:49:05.681Z,33.87
2018-03-03T08:51:33.792Z,32.27
2018-03-03T08:54:02.077Z,38.60
2018-03-03T08:56:30.322Z,36.20
2018-03-03T08:58:57.824Z,34.00
2018-03-03T09:01:25.302Z,32.37
2018-03-03T09:03:52.818Z,34.25
2018-03-03T09:06:22.972Z,35.63
2018-03-03T09:08:50.466Z,34.17
2018-03-03T09:11:17.940Z,34.80
2018-03-03T09:13:45.441Z,32.25
2018-03-03T09:16:12.920Z,34.07
2018-03-03T09:18:40.415Z,35.37
2018-03-03T09:21:07.988Z,35.27
2018-03-03T09:23:36.270Z,34.33
2018-03-03T09:26:04.530Z,35.70
2018-03-03T09:28:32.032Z,35.27
2018-03-03T09:30:59.558Z,33.67
2018-03-03T09:33:27.799Z,36.43
2018-03-03T09:35:55.316Z,36.47
2018-03-03T09:38:22.932Z,36.60
2018-03-03T09:40:50.431Z,35.40
2018-03-03T09:43:17.924Z,35.43
2018-03-03T09:45:45.416Z,38.30
2018-03-03T09:48:13.668Z,33.47
2018-03-03T09:50:41.157Z,33.70
2018-03-03T09:53:09.409Z,33.90
2018-03-03T09:55:36.905Z,33.83
2018-03-03T09:58:04.393Z,34.53
2018-03-03T10:00:32.693Z,33.37
2018-03-03T10:03:00.191Z,35.13
2018-03-03T10:05:28.453Z,34.77
2018-03-03T10:07:56.710Z,37.13
2018-03-03T10:10:24.310Z,39.20
2018-03-03T10:12:52.542Z,39.87
2018-03-03T10:15:20.042Z,40.67
2018-03-03T10:17:48.282Z,35.50
2018-03-03T10:20:17.273Z,38.53
2018-03-03T10:22:46.277Z,37.30
2018-03-03T10:25:13.756Z,40.28
2018-03-03T10:27:42.014Z,35.47
2018-03-03T10:30:09.509Z,35.87
2018-03-03T10:32:36.996Z,34.63
2018-03-03T10:35:04.482Z,35.80
2018-03-03T10:37:33.489Z,38.77
2018-03-03T10:40:01.738Z,37.03
2018-03-03T10:42:29.231Z,40.65
2018-03-03T10:44:57.490Z,37.40
2018-03-03T10:47:24.989Z,33.67
2018-03-03T10:49:52.481Z,38.00
2018-03-03T10:52:19.967Z,36.75
2018-03-03T10:54:47.465Z,35.73
2018-03-03T10:57:14.987Z,38.43
2018-03-03T10:59:43.241Z,36.43
2018-03-03T11:02:10.726Z,35.43
2018-03-03T11:04:38.979Z,34.27
2018-03-03T11:07:06.483Z,33.67
2018-03-03T11:09:33.970Z,31.40
2018-03-03T11:12:01.491Z,26.80
2018-03-03T11:14:28.963Z,28.13
2018-03-03T11:16:56.462Z,30.17
2018-03-03T11:19:23.948Z,27.57
2018-03-03T11:21:52.194Z,26.43
2018-03-03T11:24:19.667Z,26.60
2018-03-03T11:26:47.168Z,27.23
2018-03-03T11:29:14.667Z,29.23
2018-03-03T11:31:42.162Z,24.37
2018-03-03T11:34:10.437Z,20.33
2018-03-03T11:36:38.703Z,18.37
2018-03-03T11:39:06.299Z,16.30
2018-03-03T11:41:33.800Z,14.60
2018-03-03T11:44:01.265Z,15.00
2018-03-03T11:46:28.757Z,13.67
2018-03-03T11:48:56.242Z,14.70
2018-03-03T11:51:23.717Z,14.07
2018-03-03T11:53:51.213Z,19.77
2018-03-03T11:56:19.451Z,18.27
2018-03-03T11:58:46.954Z,13.53
2018-03-03T12:01:15.213Z,12.27
2018-03-03T12:03:43.474Z,14.77
2018-03-03T12:06:10.962Z,14.80
2018-03-03T12:08:38.441Z,15.67
2018-03-03T12:11:05.932Z,14.77
2018-03-03T12:13:33.425Z,15.63
2018-03-03T12:16:01.671Z,16.63
2018-03-03T12:18:29.161Z,13.80
2018-03-03T12:20:57.410Z,10.90
2018-03-03T12:23:24.903Z,11.33
2018-03-03T12:25:53.152Z,10.10
2018-03-03T12:28:20.639Z,10.60
2018-03-03T12:30:48.878Z,11.00
2018-03-03T12:33:16.378Z,10.20
2018-03-03T12:35:43.960Z,10.93
2018-03-03T12:38:12.189Z,12.57
2018-03-03T12:40:39.671Z,12.40
2018-03-03T12:43:07.154Z,11.38
2018-03-03T12:45:34.638Z,13.07
2018-03-03T12:48:02.136Z,12.47
2018-03-03T12:50:30.371Z,11.77
2018-03-03T12:52:59.562Z,12.50
2018-03-03T12:55:27.071Z,12.68
2018-03-03T12:57:55.398Z,10.03
2018-03-03T13:00:22.842Z,10.83
2018-03-03T13:02:50.354Z,10.77
2018-03-03T13:05:18.602Z,11.73
2018-03-03T13:07:46.101Z,10.80
2018-03-03T13:10:14.362Z,12.10
2018-03-03T13:12:42.649Z,12.23
2018-03-03T13:15:10.114Z,10.57
2018-03-03T13:17:37.612Z,12.90
2018-03-03T13:20:05.102Z,10.70
2018-03-03T13:22:32.642Z,11.43
2018-03-03T13:25:00.134Z,11.30
2018-03-03T13:27:28.403Z,11.15
2018-03-03T13:29:56.660Z,10.87
2018-03-03T13:32:24.151Z,13.40
2018-03-03T13:34:52.402Z,9.80
2018-03-03T13:37:19.876Z,11.23
2018-03-03T13:39:48.132Z,11.50
2018-03-03T13:42:15.606Z,10.60
2018-03-03T13:44:43.865Z,9.90
2018-03-03T13:47:11.499Z,12.27
2018-03-03T13:49:39.000Z,13.93
2018-03-03T13:52:06.485Z,12.47
2018-03-03T13:54:33.988Z,12.60
2018-03-03T13:57:01.486Z,12.10
2018-03-03T13:59:29.772Z,13.80
2018-03-03T14:01:57.249Z,12.73
2018-03-03T14:04:24.749Z,14.57
2018-03-03T14:06:52.249Z,13.60
2018-03-03T14:09:19.743Z,13.73
2018-03-03T14:11:47.223Z,16.10
2018-03-03T14:14:14.711Z,15.70
2018-03-03T14:16:42.955Z,14.00
2018-03-03T14:19:10.478Z,15.10
2018-03-03T14:21:37.968Z,15.93
2018-03-03T14:24:05.462Z,15.33
2018-03-03T14:26:33.714Z,14.77
2018-03-03T14:29:01.319Z,15.13
2018-03-03T14:31:28.806Z,18.12
2018-03-03T14:33:56.303Z,18.13
2018-03-03T14:36:24.539Z,17.10
2018-03-03T14:38:52.022Z,15.37
2018-03-03T14:41:21.012Z,14.20
2018-03-03T14:43:50.020Z,15.48
2018-03-03T14:46:18.267Z,16.00
2018-03-03T14:48:45.770Z,15.80
2018-03-03T14:51:14.017Z,16.87
2018-03-03T14:53:41.545Z,17.20
2018-03-03T14:56:09.038Z,16.87
2018-03-03T14:58:36.606Z,16.80
2018-03-03T15:01:04.854Z,16.67
2018-03-03T15:03:32.342Z,18.97
2018-03-03T15:06:00.608Z,16.57
2018-03-03T15:08:28.097Z,17.73
2018-03-03T15:10:55.585Z,15.90
2018-03-03T15:13:23.083Z,15.13
2018-03-03T15:15:50.680Z,13.27
2018-03-03T15:18:18.162Z,14.40
2018-03-03T15:20:45.660Z,14.43
2018-03-03T15:23:13.134Z,14.50
2018-03-03T15:25:41.383Z,15.43
2018-03-03T15:28:08.886Z,18.48
2018-03-03T15:30:36.360Z,19.47
2018-03-03T15:33:03.869Z,16.60
2018-03-03T15:35:31.350Z,14.33
2018-03-03T15:37:59.594Z,13.57
2018-03-03T15:40:27.089Z,13.77
2018-03-03T15:42:54.566Z,16.60
2018-03-03T15:45:22.064Z,13.33
2018-03-03T15:47:49.645Z,14.13
2018-03-03T15:50:17.912Z,13.90
2018-03-03T15:52:45.386Z,16.73
2018-03-03T15:55:13.659Z,15.40
2018-03-03T15:57:41.933Z,16.80
2018-03-03T16:00:10.188Z,14.90
2018-03-03T16:02:37.663Z,14.57
2018-03-03T16:05:05.924Z,15.70
2018-03-03T16:07:33.400Z,17.10
2018-03-03T16:10:02.470Z,16.95
2018-03-03T16:12:29.957Z,17.10
2018-03-03T16:14:58.210Z,16.63
2018-03-03T16:17:25.684Z,12.20
2018-03-03T16:19:53.936Z,14.83
2018-03-03T16:22:21.435Z,23.77
2018-03-03T16:24:48.936Z,17.70
2018-03-03T16:27:16.427Z,16.70
2018-03-03T16:29:43.897Z,17.33
2018-03-03T16:32:12.175Z,21.30
2018-03-03T16:35:01.138Z,20.00
2018-03-03T16:37:29.391Z,19.30
2018-03-03T16:39:56.881Z,17.97
2018-03-03T16:42:24.377Z,16.50
2018-03-03T16:44:51.859Z,13.20
2018-03-03T16:47:19.358Z,15.53
2018-03-03T16:49:46.857Z,17.00
2018-03-03T16:52:14.964Z,15.25
2018-03-03T16:54:43.237Z,16.23
2018-03-03T16:57:11.494Z,18.70
2018-03-03T16:59:40.520Z,19.50
2018-03-03T17:02:08.770Z,20.20
2018-03-03T17:04:37.029Z,17.43
2018-03-03T17:07:04.504Z,19.73
2018-03-03T17:09:32.007Z,21.20
2018-03-03T17:11:59.509Z,19.40
2018-03-03T17:14:26.984Z,17.30
2018-03-03T17:16:54.476Z,17.10
2018-03-03T17:19:21.961Z,18.83
2018-03-03T17:21:49.466Z,18.50
2018-03-03T17:24:17.719Z,18.73
2018-03-03T17:26:45.298Z,19.50
2018-03-03T17:29:13.546Z,19.13
2018-03-03T17:31:41.037Z,17.67
2018-03-03T17:34:09.368Z,16.57
2018-03-03T17:36:43.838Z,20.77
2018-03-03T17:39:11.328Z,20.20
2018-03-03T17:41:39.586Z,18.67
2018-03-03T17:44:07.059Z,19.33
2018-03-03T17:46:35.498Z,20.10
2018-03-03T17:49:02.986Z,18.43
2018-03-03T17:51:30.451Z,19.70
2018-03-03T17:53:57.946Z,18.50
2018-03-03T17:56:25.440Z,23.43
2018-03-03T17:58:53.697Z,21.40
2018-03-03T18:01:21.181Z,20.27
2018-03-03T18:03:49.433Z,19.00
2018-03-03T18:06:18.425Z,19.30
2018-03-03T18:08:45.911Z,18.67
2018-03-03T18:11:14.981Z,19.20
2018-03-03T18:13:42.469Z,21.60
2018-03-03T18:16:09.961Z,23.20
2018-03-03T18:18:37.461Z,21.00
2018-03-03T18:21:05.697Z,18.40
2018-03-03T18:23:33.192Z,20.73
2018-03-03T18:26:00.659Z,19.40
2018-03-03T18:28:28.901Z,18.77
2018-03-03T18:30:57.143Z,20.30
2018-03-03T18:33:24.667Z,21.33
2018-03-03T18:35:52.903Z,21.00
2018-03-03T18:38:22.028Z,22.30
2018-03-03T18:40:50.283Z,21.87
2018-03-03T18:43:17.772Z,22.63
2018-03-03T18:45:46.014Z,21.90
2018-03-03T18:48:13.603Z,23.70
2018-03-03T18:50:41.868Z,21.97
2018-03-03T18:53:09.394Z,22.95
2018-03-03T18:55:36.875Z,23.20
2018-03-03T18:58:04.340Z,22.30
2018-03-03T19:00:33.349Z,21.50
2018-03-03T19:03:01.861Z,22.50
2018-03-03T19:05:29.318Z,23.87
2018-03-03T19:07:56.810Z,23.40
2018-03-03T19:10:24.314Z,27.70
2018-03-03T19:12:52.576Z,26.30
2018-03-03T19:15:20.089Z,25.87
2018-03-03T19:17:47.566Z,24.33
2018-03-03T19:20:15.157Z,27.00
2018-03-03T19:22:43.443Z,26.50
2018-03-03T19:25:11.704Z,27.87
2018-03-03T19:27:39.959Z,27.93
2018-03-03T19:30:07.470Z,28.77
2018-03-03T19:32:34.967Z,26.73
2018-03-03T19:35:02.464Z,27.00
2018-03-03T19:37:30.722Z,27.08
2018-03-03T19:39:58.216Z,29.63
2018-03-03T19:42:25.689Z,28.10
2018-03-03T19:44:53.174Z,29.27
2018-03-03T19:47:21.567Z,29.80
2018-03-03T19:49:49.073Z,29.67
2018-03-03T19:52:16.574Z,28.17
2018-03-03T19:54:44.177Z,28.20
2018-03-03T19:57:12.431Z,26.20
2018-03-03T19:59:39.944Z,27.37
2018-03-03T20:02:07.425Z,29.27
2018-03-03T20:07:28.610Z,32.08
2018-03-03T20:09:56.096Z,33.00
2018-03-03T20:12:23.586Z,28.07
2018-03-03T20:14:51.078Z,26.60
2018-03-03T20:17:18.563Z,27.30
2018-03-03T20:19:46.066Z,29.47
2018-03-03T20:22:13.591Z,28.93
2018-03-03T20:24:41.067Z,27.20
2018-03-03T20:27:08.571Z,28.70
2018-03-03T20:29:36.066Z,30.30
2018-03-03T20:32:03.557Z,31.33
2018-03-03T20:34:31.038Z,32.50
2018-03-03T20:36:58.531Z,32.57
2018-03-03T20:39:26.010Z,32.40
2018-03-03T20:41:53.510Z,33.20
2018-03-03T20:44:21.736Z,32.03
2018-03-03T20:46:50.217Z,34.00
2018-03-03T20:49:17.699Z,32.67
2018-03-03T20:51:45.200Z,31.43
2018-03-03T20:54:12.700Z,33.40
2018-03-03T20:56:40.192Z,32.93
2018-03-03T20:59:08.436Z,34.17
2018-03-03T21:01:36.695Z,32.20
2018-03-03T21:04:04.206Z,31.90
2018-03-03T21:06:32.472Z,32.27
2018-03-03T21:09:00.716Z,32.17
2018-03-03T21:11:43.176Z,29.80
2018-03-03T21:14:10.662Z,29.07
2018-03-03T21:16:38.179Z,29.13
2018-03-03T21:19:06.424Z,29.33
2018-03-03T21:21:35.440Z,28.47
2018-03-03T21:24:03.707Z,25.87
2018-03-03T21:26:31.184Z,27.70
2018-03-03T21:28:59.440Z,26.23
2018-03-03T21:31:26.920Z,26.47
2018-03-03T21:33:55.187Z,25.10
2018-03-03T21:36:22.678Z,26.90
2018-03-03T21:38:50.162Z,26.57
2018-03-03T21:41:17.647Z,27.90
2018-03-03T21:43:45.156Z,27.43
2018-03-03T21:46:12.638Z,26.10
2018-03-03T21:48:40.133Z,26.00
2018-03-03T21:51:08.377Z,25.93
2018-03-03T21:53:35.865Z,26.00
2018-03-03T21:56:04.121Z,24.63
2018-03-03T21:58:31.615Z,23.77
2018-03-03T22:00:59.871Z,25.00
2018-03-03T22:03:27.369Z,26.47
2018-03-03T22:05:54.850Z,24.80
2018-03-03T22:08:22.348Z,22.80
2018-03-03T22:10:50.593Z,23.33
2018-03-03T22:13:18.080Z,24.80
2018-03-03T22:15:45.577Z,24.00
2018-03-03T22:18:13.131Z,23.67
2018-03-03T22:20:40.594Z,23.93
2018-03-03T22:23:08.088Z,23.43
2018-03-03T22:25:35.576Z,23.63
2018-03-03T22:28:03.818Z,22.90
2018-03-03T22:30:31.320Z,22.73
2018-03-03T22:32:59.574Z,23.60
2018-03-03T22:35:27.825Z,22.20
2018-03-03T22:37:55.335Z,20.90
2018-03-03T22:40:23.581Z,19.93
2018-03-03T22:42:51.050Z,20.70
2018-03-03T22:45:19.931Z,20.67
2018-03-03T22:47:48.934Z,20.60
2018-03-03T22:50:17.197Z,21.90
2018-03-03T22:52:44.669Z,21.27
2018-03-03T22:55:12.916Z,20.42
2018-03-03T22:57:40.396Z,19.92
2018-03-03T23:00:07.876Z,20.50
2018-03-03T23:02:35.352Z,21.90
2018-03-03T23:05:02.855Z,21.50
2018-03-03T23:07:30.444Z,21.00
2018-03-03T23:09:58.698Z,21.20
2018-03-03T23:12:26.269Z,23.53
2018-03-03T23:14:54.527Z,24.00
2018-03-03T23:17:22.031Z,21.97
2018-03-03T23:19:50.261Z,21.90
2018-03-03T23:22:17.758Z,23.47
2018-03-03T23:24:45.282Z,23.90
2018-03-03T23:27:12.761Z,22.30
2018-03-03T23:29:41.031Z,23.38
2018-03-03T23:32:09.297Z,22.47
2018-03-03T23:34:36.794Z,21.73
2018-03-03T23:37:04.279Z,20.83
2018-03-03T23:39:31.764Z,22.47
2018-03-03T23:41:59.248Z,21.80
2018-03-03T23:44:27.502Z,21.00
2018-03-03T23:46:54.980Z,22.03
2018-03-03T23:49:23.266Z,20.63
2018-03-03T23:51:50.751Z,20.83
2018-03-03T23:54:18.248Z,21.90
2018-03-03T23:56:45.733Z,22.00
2018-03-03T23:59:13.965Z,21.27
